Fertile, IA (50434)

1:46 PM CDT on August 29, 2016 (GMT -0500)
Southwest Fertile | | Change Station
Active Advisory: Special Statement

Elev 1181 ft 43.26 °N, 93.43 °W | Updated 21 seconds ago

Light Rain
Light Rain
65.3 °F
Feels Like 65.3 °F
N
2.6
Wind Variable Wind from WSW
Gusts 4.6 mph

Today
High -- | Low -- °F
--% Chance of Precip.
Yesterday
High -- | Low -- °F
Precip. -- in
Pressure 30.24 in
Visibility 10.0 miles
Clouds Few 1400 ft
Scattered Clouds 2800 ft
Mostly Cloudy 12000 ft
Dew Point 64 °F
Humidity 97%
Rainfall 0.36 in
Snow Depth Not available.
6:35 AM 7:52 PM
Waning Crescent, 7% visible
SPECI KMCW 291840Z AUTO 23006KT 10SM VCTS -RA FEW014 SCT028 BKN120 22/20 A3024 RMK AO2 LTG DSNT S-W RAB13 P0000 T02220200
Pressure 30.24 in
Visibility 10.0 miles
Clouds Few 1400 ft
Scattered Clouds 2800 ft
Mostly Cloudy 12000 ft
Dew Point 64 °F
Humidity 97%
Rainfall 0.36 in
Snow Depth Not available.
6:35 AM 7:52 PM
Waning Crescent, 7% visible
SPECI KMCW 291840Z AUTO 23006KT 10SM VCTS -RA FEW014 SCT028 BKN120 22/20 A3024 RMK AO2 LTG DSNT S-W RAB13 P0000 T02220200

10-Day Weather Forecast

Almanac

Astronomy

Aug. 29, 2016 Rise Set
Actual Time
Civil Twilight
Nautical Twilight
Astronomical Twilight
Moon
Length of Visible Light
Length of Day
Tomorrow will be .
, % of the Moon is Illuminated

Today's Extremes

State Highs State Lows

Community

WunderPhotos

Upload Photos

1,935,680 photos uploaded!

WunderBlog® & News

Nearby

Air Quality

  Air Quality AQ Index Pollutant
Not available.

Snow Depth

Station Depth Elevation

Earthquake Activity

City Distance Mag. Time & Date
Minimum magnitude displayed is 2.5.

Coastal Water Temperatures

Place Temperature

Stations

Nearby Weather Stations

Station Location Temp. Windchill Dew Point Humidity Wind Precip. Elev Updated Type
                   

Watches & Warnings

Special Statement
Issued: 1:37 PM CDT Aug. 29, 2016 – National Weather Service

... Conditions are favorable for funnel clouds...

Current atmospheric conditions support the development of funnel
clouds across much of Iowa this afternoon. Usually... these funnel
clouds can form from showers and weak thunderstorms. These funnels
are normally brief... drop only a few hundred feet from the cloud
base... and rarely become a tornado or cause damage. However... if
one is spotted... please immediately report it to the National
Weather Service. If a Tornado Warning would become
necessary... take appropriate action.


Small